sensor_id;sensor_type;location;lat;lon;timestamp;P1;durP1;ratioP1;P2;durP2;ratioP2
8532;SDS011;4304;53.876;10.662;2022-08-19T00:00:27;21.10;;;11.55;;
8532;SDS011;4304;53.876;10.662;2022-08-19T00:02:52;21.02;;;12.05;;
8532;SDS011;4304;53.876;10.662;2022-08-19T00:05:18;21.90;;;13.05;;
8532;SDS011;4304;53.876;10.662;2022-08-19T00:07:45;24.63;;;13.38;;
8532;SDS011;4304;53.876;10.662;2022-08-19T00:10:11;20.83;;;13.77;;
8532;SDS011;4304;53.876;10.662;2022-08-19T00:12:39;20.30;;;13.70;;
8532;SDS011;4304;53.876;10.662;2022-08-19T00:15:07;23.38;;;13.60;;
8532;SDS011;4304;53.876;10.662;2022-08-19T00:17:44;19.63;;;13.57;;
8532;SDS011;4304;53.876;10.662;2022-08-19T00:20:11;30.95;;;14.27;;
8532;SDS011;4304;53.876;10.662;2022-08-19T00:22:41;22.50;;;13.82;;
8532;SDS011;4304;53.876;10.662;2022-08-19T00:25:07;28.15;;;14.25;;
8532;SDS011;4304;53.876;10.662;2022-08-19T00:27:33;21.42;;;14.85;;
8532;SDS011;4304;53.876;10.662;2022-08-19T00:29:59;23.05;;;14.35;;
8532;SDS011;4304;53.876;10.662;2022-08-19T00:32:25;26.17;;;14.77;;
8532;SDS011;4304;53.876;10.662;2022-08-19T00:34:51;26.95;;;13.77;;
8532;SDS011;4304;53.876;10.662;2022-08-19T00:37:18;21.27;;;14.02;;
8532;SDS011;4304;53.876;10.662;2022-08-19T00:39:47;23.52;;;13.85;;
8532;SDS011;4304;53.876;10.662;2022-08-19T00:42:13;22.25;;;13.70;;
8532;SDS011;4304;53.876;10.662;2022-08-19T00:44:40;22.13;;;14.05;;
8532;SDS011;4304;53.876;10.662;2022-08-19T00:47:06;21.20;;;13.18;;
8532;SDS011;4304;53.876;10.662;2022-08-19T00:49:36;25.50;;;13.95;;
8532;SDS011;4304;53.876;10.662;2022-08-19T00:52:07;28.13;;;14.63;;
8532;SDS011;4304;53.876;10.662;2022-08-19T00:54:34;28.80;;;15.02;;
8532;SDS011;4304;53.876;10.662;2022-08-19T00:57:02;27.88;;;13.55;;
8532;SDS011;4304;53.876;10.662;2022-08-19T00:59:31;24.15;;;13.57;;
8532;SDS011;4304;53.876;10.662;2022-08-19T01:01:59;24.98;;;13.57;;
8532;SDS011;4304;53.876;10.662;2022-08-19T01:04:25;23.05;;;14.55;;
8532;SDS011;4304;53.876;10.662;2022-08-19T01:06:50;26.88;;;14.05;;
8532;SDS011;4304;53.876;10.662;2022-08-19T01:09:15;26.15;;;13.10;;
8532;SDS011;4304;53.876;10.662;2022-08-19T01:11:41;21.50;;;13.07;;
8532;SDS011;4304;53.876;10.662;2022-08-19T01:14:09;25.80;;;13.32;;
8532;SDS011;4304;53.876;10.662;2022-08-19T01:16:35;22.63;;;12.73;;
8532;SDS011;4304;53.876;10.662;2022-08-19T01:19:02;21.50;;;12.70;;
8532;SDS011;4304;53.876;10.662;2022-08-19T01:21:40;20.48;;;12.85;;
8532;SDS011;4304;53.876;10.662;2022-08-19T01:24:11;21.40;;;12.85;;
8532;SDS011;4304;53.876;10.662;2022-08-19T01:26:40;22.63;;;12.70;;
8532;SDS011;4304;53.876;10.662;2022-08-19T01:29:08;19.58;;;13.02;;
8532;SDS011;4304;53.876;10.662;2022-08-19T01:31:34;21.83;;;13.57;;
8532;SDS011;4304;53.876;10.662;2022-08-19T01:34:00;22.35;;;13.27;;
8532;SDS011;4304;53.876;10.662;2022-08-19T01:38:55;25.58;;;13.52;;
8532;SDS011;4304;53.876;10.662;2022-08-19T01:41:22;25.08;;;13.35;;
8532;SDS011;4304;53.876;10.662;2022-08-19T01:43:49;21.05;;;14.00;;
8532;SDS011;4304;53.876;10.662;2022-08-19T01:46:15;21.42;;;12.38;;
8532;SDS011;4304;53.876;10.662;2022-08-19T01:48:41;19.63;;;12.38;;
8532;SDS011;4304;53.876;10.662;2022-08-19T01:51:08;22.17;;;13.18;;
8532;SDS011;4304;53.876;10.662;2022-08-19T01:53:35;24.55;;;13.45;;
8532;SDS011;4304;53.876;10.662;2022-08-19T01:56:00;19.77;;;12.95;;
8532;SDS011;4304;53.876;10.662;2022-08-19T01:58:30;22.55;;;12.57;;
8532;SDS011;4304;53.876;10.662;2022-08-19T02:01:00;19.10;;;12.45;;
8532;SDS011;4304;53.876;10.662;2022-08-19T02:03:26;23.05;;;11.60;;
8532;SDS011;4304;53.876;10.662;2022-08-19T02:05:55;22.50;;;12.43;;
8532;SDS011;4304;53.876;10.662;2022-08-19T02:08:22;22.08;;;12.73;;
8532;SDS011;4304;53.876;10.662;2022-08-19T02:10:47;21.02;;;11.77;;
8532;SDS011;4304;53.876;10.662;2022-08-19T02:13:14;24.20;;;12.18;;
8532;SDS011;4304;53.876;10.662;2022-08-19T02:15:40;22.75;;;12.00;;
8532;SDS011;4304;53.876;10.662;2022-08-19T02:18:06;22.17;;;12.50;;
8532;SDS011;4304;53.876;10.662;2022-08-19T02:20:33;22.02;;;12.07;;
8532;SDS011;4304;53.876;10.662;2022-08-19T02:22:59;18.02;;;11.52;;
8532;SDS011;4304;53.876;10.662;2022-08-19T02:25:26;22.15;;;12.15;;
8532;SDS011;4304;53.876;10.662;2022-08-19T02:27:51;20.80;;;11.43;;
8532;SDS011;4304;53.876;10.662;2022-08-19T02:30:17;22.08;;;11.50;;
8532;SDS011;4304;53.876;10.662;2022-08-19T02:32:43;26.67;;;12.70;;
8532;SDS011;4304;53.876;10.662;2022-08-19T02:35:09;25.25;;;12.50;;
8532;SDS011;4304;53.876;10.662;2022-08-19T02:37:35;20.23;;;11.55;;
8532;SDS011;4304;53.876;10.662;2022-08-19T02:40:19;20.85;;;11.20;;
8532;SDS011;4304;53.876;10.662;2022-08-19T02:42:45;23.17;;;11.98;;
8532;SDS011;4304;53.876;10.662;2022-08-19T02:45:11;17.13;;;11.77;;
8532;SDS011;4304;53.876;10.662;2022-08-19T02:47:38;18.50;;;11.27;;
8532;SDS011;4304;53.876;10.662;2022-08-19T02:50:04;20.33;;;11.40;;
8532;SDS011;4304;53.876;10.662;2022-08-19T02:52:31;24.15;;;10.60;;
8532;SDS011;4304;53.876;10.662;2022-08-19T02:54:58;19.42;;;10.75;;
8532;SDS011;4304;53.876;10.662;2022-08-19T02:57:25;21.30;;;11.38;;
8532;SDS011;4304;53.876;10.662;2022-08-19T02:59:51;19.02;;;11.40;;
8532;SDS011;4304;53.876;10.662;2022-08-19T03:02:18;18.35;;;10.73;;
8532;SDS011;4304;53.876;10.662;2022-08-19T03:04:43;23.88;;;10.88;;
8532;SDS011;4304;53.876;10.662;2022-08-19T03:07:09;18.98;;;11.00;;
8532;SDS011;4304;53.876;10.662;2022-08-19T03:09:38;15.90;;;10.75;;
8532;SDS011;4304;53.876;10.662;2022-08-19T03:12:04;17.63;;;10.30;;
8532;SDS011;4304;53.876;10.662;2022-08-19T03:14:31;16.63;;;9.98;;
8532;SDS011;4304;53.876;10.662;2022-08-19T03:16:57;18.25;;;9.90;;
8532;SDS011;4304;53.876;10.662;2022-08-19T03:19:23;18.27;;;10.00;;
8532;SDS011;4304;53.876;10.662;2022-08-19T03:21:49;15.07;;;9.63;;
8532;SDS011;4304;53.876;10.662;2022-08-19T03:24:16;16.40;;;10.00;;
8532;SDS011;4304;53.876;10.662;2022-08-19T03:26:47;16.48;;;10.52;;
8532;SDS011;4304;53.876;10.662;2022-08-19T03:29:15;18.52;;;10.40;;
8532;SDS011;4304;53.876;10.662;2022-08-19T03:31:41;17.15;;;9.85;;
8532;SDS011;4304;53.876;10.662;2022-08-19T03:34:08;14.77;;;9.52;;
8532;SDS011;4304;53.876;10.662;2022-08-19T03:36:36;18.00;;;10.68;;
8532;SDS011;4304;53.876;10.662;2022-08-19T03:39:03;15.00;;;10.25;;
8532;SDS011;4304;53.876;10.662;2022-08-19T03:41:30;18.75;;;10.55;;
8532;SDS011;4304;53.876;10.662;2022-08-19T03:43:57;14.45;;;9.98;;
8532;SDS011;4304;53.876;10.662;2022-08-19T03:46:25;19.08;;;10.30;;
8532;SDS011;4304;53.876;10.662;2022-08-19T03:48:55;16.23;;;9.63;;
8532;SDS011;4304;53.876;10.662;2022-08-19T03:51:24;23.52;;;10.98;;
8532;SDS011;4304;53.876;10.662;2022-08-19T03:53:58;21.02;;;11.30;;
8532;SDS011;4304;53.876;10.662;2022-08-19T03:56:25;19.88;;;11.13;;
8532;SDS011;4304;53.876;10.662;2022-08-19T03:58:52;17.85;;;10.60;;
8532;SDS011;4304;53.876;10.662;2022-08-19T04:01:19;17.23;;;10.65;;
8532;SDS011;4304;53.876;10.662;2022-08-19T04:03:47;22.30;;;11.35;;
8532;SDS011;4304;53.876;10.662;2022-08-19T04:06:19;22.15;;;11.40;;
8532;SDS011;4304;53.876;10.662;2022-08-19T04:08:47;21.42;;;10.80;;
8532;SDS011;4304;53.876;10.662;2022-08-19T04:11:17;18.33;;;11.27;;
8532;SDS011;4304;53.876;10.662;2022-08-19T04:13:46;19.08;;;11.40;;
8532;SDS011;4304;53.876;10.662;2022-08-19T04:16:12;22.05;;;11.75;;
8532;SDS011;4304;53.876;10.662;2022-08-19T04:18:38;17.27;;;10.75;;
8532;SDS011;4304;53.876;10.662;2022-08-19T04:21:05;19.60;;;11.15;;
8532;SDS011;4304;53.876;10.662;2022-08-19T04:23:31;24.80;;;12.45;;
8532;SDS011;4304;53.876;10.662;2022-08-19T04:25:57;18.38;;;11.30;;
8532;SDS011;4304;53.876;10.662;2022-08-19T04:28:23;23.00;;;12.00;;
8532;SDS011;4304;53.876;10.662;2022-08-19T04:30:51;21.90;;;11.40;;
8532;SDS011;4304;53.876;10.662;2022-08-19T04:33:19;26.27;;;11.73;;
8532;SDS011;4304;53.876;10.662;2022-08-19T04:35:46;20.73;;;12.15;;
8532;SDS011;4304;53.876;10.662;2022-08-19T04:38:15;18.92;;;11.05;;
8532;SDS011;4304;53.876;10.662;2022-08-19T04:40:43;22.67;;;11.98;;
8532;SDS011;4304;53.876;10.662;2022-08-19T04:43:29;18.35;;;11.10;;
8532;SDS011;4304;53.876;10.662;2022-08-19T04:45:56;19.45;;;11.55;;
8532;SDS011;4304;53.876;10.662;2022-08-19T04:48:22;23.17;;;11.85;;
8532;SDS011;4304;53.876;10.662;2022-08-19T04:50:53;20.50;;;12.15;;
8532;SDS011;4304;53.876;10.662;2022-08-19T04:53:23;23.23;;;13.27;;
8532;SDS011;4304;53.876;10.662;2022-08-19T04:55:49;24.50;;;12.27;;
8532;SDS011;4304;53.876;10.662;2022-08-19T04:58:15;24.20;;;12.82;;
8532;SDS011;4304;53.876;10.662;2022-08-19T05:00:42;27.10;;;13.88;;
8532;SDS011;4304;53.876;10.662;2022-08-19T05:03:08;27.08;;;13.57;;
8532;SDS011;4304;53.876;10.662;2022-08-19T05:05:37;27.70;;;13.05;;
8532;SDS011;4304;53.876;10.662;2022-08-19T05:08:04;22.17;;;13.63;;
8532;SDS011;4304;53.876;10.662;2022-08-19T05:10:30;28.77;;;15.23;;
8532;SDS011;4304;53.876;10.662;2022-08-19T05:12:55;23.00;;;13.52;;
8532;SDS011;4304;53.876;10.662;2022-08-19T05:15:22;25.25;;;13.40;;
8532;SDS011;4304;53.876;10.662;2022-08-19T05:17:47;21.60;;;13.70;;
8532;SDS011;4304;53.876;10.662;2022-08-19T05:20:32;25.65;;;13.85;;
8532;SDS011;4304;53.876;10.662;2022-08-19T05:23:16;27.70;;;14.18;;
8532;SDS011;4304;53.876;10.662;2022-08-19T05:25:42;26.58;;;14.25;;
8532;SDS011;4304;53.876;10.662;2022-08-19T05:28:07;22.85;;;14.45;;
8532;SDS011;4304;53.876;10.662;2022-08-19T05:30:32;25.60;;;13.95;;
8532;SDS011;4304;53.876;10.662;2022-08-19T05:32:59;27.20;;;14.65;;
8532;SDS011;4304;53.876;10.662;2022-08-19T05:35:24;29.52;;;14.82;;
8532;SDS011;4304;53.876;10.662;2022-08-19T05:37:49;28.55;;;13.82;;
8532;SDS011;4304;53.876;10.662;2022-08-19T05:40:15;26.13;;;13.57;;
8532;SDS011;4304;53.876;10.662;2022-08-19T05:42:41;24.65;;;14.32;;
8532;SDS011;4304;53.876;10.662;2022-08-19T05:45:07;29.38;;;14.95;;
8532;SDS011;4304;53.876;10.662;2022-08-19T05:47:33;30.48;;;14.90;;
8532;SDS011;4304;53.876;10.662;2022-08-19T05:49:59;24.85;;;13.68;;
8532;SDS011;4304;53.876;10.662;2022-08-19T05:52:27;28.40;;;15.35;;
8532;SDS011;4304;53.876;10.662;2022-08-19T05:54:53;27.10;;;13.90;;
8532;SDS011;4304;53.876;10.662;2022-08-19T05:57:20;29.40;;;14.50;;
8532;SDS011;4304;53.876;10.662;2022-08-19T05:59:46;28.08;;;13.85;;
8532;SDS011;4304;53.876;10.662;2022-08-19T06:02:13;31.55;;;15.40;;
8532;SDS011;4304;53.876;10.662;2022-08-19T06:04:39;31.10;;;14.38;;
8532;SDS011;4304;53.876;10.662;2022-08-19T06:07:07;28.45;;;14.90;;
8532;SDS011;4304;53.876;10.662;2022-08-19T06:09:33;27.52;;;14.80;;
8532;SDS011;4304;53.876;10.662;2022-08-19T06:11:58;28.10;;;14.68;;
8532;SDS011;4304;53.876;10.662;2022-08-19T06:14:26;31.63;;;14.40;;
8532;SDS011;4304;53.876;10.662;2022-08-19T06:16:54;30.60;;;14.85;;
8532;SDS011;4304;53.876;10.662;2022-08-19T06:19:21;33.40;;;15.90;;
8532;SDS011;4304;53.876;10.662;2022-08-19T06:21:49;31.25;;;15.13;;
8532;SDS011;4304;53.876;10.662;2022-08-19T06:24:17;34.75;;;16.48;;
8532;SDS011;4304;53.876;10.662;2022-08-19T06:26:46;32.15;;;15.10;;
8532;SDS011;4304;53.876;10.662;2022-08-19T06:29:13;29.08;;;14.93;;
8532;SDS011;4304;53.876;10.662;2022-08-19T06:31:42;30.38;;;14.93;;
8532;SDS011;4304;53.876;10.662;2022-08-19T06:34:08;29.30;;;15.68;;
8532;SDS011;4304;53.876;10.662;2022-08-19T06:36:38;29.35;;;14.52;;
8532;SDS011;4304;53.876;10.662;2022-08-19T06:39:08;28.48;;;14.70;;
8532;SDS011;4304;53.876;10.662;2022-08-19T06:41:35;39.05;;;14.48;;
8532;SDS011;4304;53.876;10.662;2022-08-19T06:44:05;27.88;;;14.27;;
8532;SDS011;4304;53.876;10.662;2022-08-19T06:46:32;33.03;;;14.43;;
8532;SDS011;4304;53.876;10.662;2022-08-19T06:48:58;27.20;;;14.07;;
8532;SDS011;4304;53.876;10.662;2022-08-19T06:51:24;29.98;;;14.82;;
8532;SDS011;4304;53.876;10.662;2022-08-19T06:53:51;31.55;;;14.98;;
8532;SDS011;4304;53.876;10.662;2022-08-19T06:56:18;29.35;;;15.18;;
8532;SDS011;4304;53.876;10.662;2022-08-19T06:58:47;34.15;;;16.58;;
8532;SDS011;4304;53.876;10.662;2022-08-19T07:01:18;36.15;;;16.35;;
8532;SDS011;4304;53.876;10.662;2022-08-19T07:03:44;33.55;;;16.20;;
8532;SDS011;4304;53.876;10.662;2022-08-19T07:06:11;27.30;;;14.27;;
8532;SDS011;4304;53.876;10.662;2022-08-19T07:08:40;24.80;;;14.13;;
8532;SDS011;4304;53.876;10.662;2022-08-19T07:11:07;31.02;;;15.05;;
8532;SDS011;4304;53.876;10.662;2022-08-19T07:13:34;34.28;;;16.15;;
8532;SDS011;4304;53.876;10.662;2022-08-19T07:16:04;35.30;;;15.32;;
8532;SDS011;4304;53.876;10.662;2022-08-19T07:18:30;36.85;;;14.98;;
8532;SDS011;4304;53.876;10.662;2022-08-19T07:21:06;29.13;;;14.52;;
8532;SDS011;4304;53.876;10.662;2022-08-19T07:23:33;31.42;;;15.15;;
8532;SDS011;4304;53.876;10.662;2022-08-19T07:25:58;33.53;;;15.65;;
8532;SDS011;4304;53.876;10.662;2022-08-19T07:28:30;29.20;;;15.00;;
8532;SDS011;4304;53.876;10.662;2022-08-19T07:30:56;34.08;;;16.98;;
8532;SDS011;4304;53.876;10.662;2022-08-19T07:33:21;36.05;;;16.52;;
8532;SDS011;4304;53.876;10.662;2022-08-19T07:35:46;34.03;;;15.38;;
8532;SDS011;4304;53.876;10.662;2022-08-19T07:38:11;50.60;;;16.65;;
8532;SDS011;4304;53.876;10.662;2022-08-19T07:40:37;36.17;;;16.45;;
8532;SDS011;4304;53.876;10.662;2022-08-19T07:43:02;40.08;;;16.80;;
8532;SDS011;4304;53.876;10.662;2022-08-19T07:45:27;41.80;;;17.45;;
8532;SDS011;4304;53.876;10.662;2022-08-19T07:47:53;40.95;;;17.85;;
8532;SDS011;4304;53.876;10.662;2022-08-19T07:50:19;41.42;;;17.10;;
8532;SDS011;4304;53.876;10.662;2022-08-19T07:52:45;42.10;;;18.10;;
8532;SDS011;4304;53.876;10.662;2022-08-19T07:55:11;44.85;;;18.75;;
8532;SDS011;4304;53.876;10.662;2022-08-19T07:57:37;39.20;;;17.42;;
8532;SDS011;4304;53.876;10.662;2022-08-19T08:00:04;38.35;;;16.75;;
8532;SDS011;4304;53.876;10.662;2022-08-19T08:02:31;41.55;;;18.23;;
8532;SDS011;4304;53.876;10.662;2022-08-19T08:04:56;37.28;;;17.48;;
8532;SDS011;4304;53.876;10.662;2022-08-19T08:07:47;42.25;;;17.58;;
8532;SDS011;4304;53.876;10.662;2022-08-19T08:10:31;42.03;;;18.27;;
8532;SDS011;4304;53.876;10.662;2022-08-19T08:12:57;38.17;;;18.13;;
8532;SDS011;4304;53.876;10.662;2022-08-19T08:15:22;39.05;;;16.95;;
8532;SDS011;4304;53.876;10.662;2022-08-19T08:17:48;45.25;;;18.80;;
8532;SDS011;4304;53.876;10.662;2022-08-19T08:20:13;38.42;;;17.70;;
8532;SDS011;4304;53.876;10.662;2022-08-19T08:22:42;41.47;;;18.92;;
8532;SDS011;4304;53.876;10.662;2022-08-19T08:25:30;36.88;;;17.15;;
8532;SDS011;4304;53.876;10.662;2022-08-19T08:27:56;38.17;;;17.35;;
8532;SDS011;4304;53.876;10.662;2022-08-19T08:30:24;48.42;;;18.65;;
8532;SDS011;4304;53.876;10.662;2022-08-19T08:32:50;44.65;;;18.02;;
8532;SDS011;4304;53.876;10.662;2022-08-19T08:35:18;39.38;;;17.77;;
8532;SDS011;4304;53.876;10.662;2022-08-19T08:37:45;44.20;;;19.00;;
8532;SDS011;4304;53.876;10.662;2022-08-19T08:40:29;42.42;;;18.52;;
8532;SDS011;4304;53.876;10.662;2022-08-19T08:43:15;51.70;;;20.17;;
8532;SDS011;4304;53.876;10.662;2022-08-19T08:45:52;45.10;;;19.90;;
8532;SDS011;4304;53.876;10.662;2022-08-19T08:48:27;46.00;;;19.55;;
8532;SDS011;4304;53.876;10.662;2022-08-19T08:50:59;41.92;;;17.70;;
8532;SDS011;4304;53.876;10.662;2022-08-19T08:53:28;42.72;;;16.73;;
8532;SDS011;4304;53.876;10.662;2022-08-19T08:55:54;42.72;;;18.58;;
8532;SDS011;4304;53.876;10.662;2022-08-19T08:58:21;41.10;;;18.38;;
8532;SDS011;4304;53.876;10.662;2022-08-19T09:00:53;35.70;;;17.08;;
8532;SDS011;4304;53.876;10.662;2022-08-19T09:05:54;42.15;;;19.50;;
8532;SDS011;4304;53.876;10.662;2022-08-19T09:11:15;46.90;;;18.63;;
8532;SDS011;4304;53.876;10.662;2022-08-19T09:13:51;46.85;;;19.60;;
8532;SDS011;4304;53.876;10.662;2022-08-19T09:16:20;40.13;;;18.33;;
8532;SDS011;4304;53.876;10.662;2022-08-19T09:18:55;47.38;;;18.95;;
8532;SDS011;4304;53.876;10.662;2022-08-19T09:21:27;46.08;;;18.98;;
8532;SDS011;4304;53.876;10.662;2022-08-19T09:23:53;45.90;;;19.20;;
8532;SDS011;4304;53.876;10.662;2022-08-19T09:26:20;48.92;;;19.98;;
8532;SDS011;4304;53.876;10.662;2022-08-19T09:28:47;42.63;;;19.13;;
8532;SDS011;4304;53.876;10.662;2022-08-19T09:31:14;47.35;;;19.55;;
8532;SDS011;4304;53.876;10.662;2022-08-19T09:33:42;43.70;;;18.52;;
8532;SDS011;4304;53.876;10.662;2022-08-19T09:36:11;50.08;;;20.50;;
8532;SDS011;4304;53.876;10.662;2022-08-19T09:38:37;46.75;;;19.00;;
8532;SDS011;4304;53.876;10.662;2022-08-19T09:41:07;43.10;;;18.85;;
8532;SDS011;4304;53.876;10.662;2022-08-19T09:43:38;48.78;;;18.90;;
8532;SDS011;4304;53.876;10.662;2022-08-19T09:46:05;44.90;;;19.70;;
8532;SDS011;4304;53.876;10.662;2022-08-19T09:48:32;44.63;;;19.08;;
8532;SDS011;4304;53.876;10.662;2022-08-19T09:53:29;44.00;;;18.50;;
8532;SDS011;4304;53.876;10.662;2022-08-19T09:55:56;41.90;;;18.38;;
8532;SDS011;4304;53.876;10.662;2022-08-19T09:58:21;41.78;;;18.60;;
8532;SDS011;4304;53.876;10.662;2022-08-19T10:00:49;43.72;;;18.88;;
8532;SDS011;4304;53.876;10.662;2022-08-19T10:03:14;43.78;;;18.85;;
8532;SDS011;4304;53.876;10.662;2022-08-19T10:05:40;44.03;;;18.38;;
8532;SDS011;4304;53.876;10.662;2022-08-19T10:08:18;47.65;;;19.88;;
8532;SDS011;4304;53.876;10.662;2022-08-19T10:10:49;36.30;;;17.23;;
8532;SDS011;4304;53.876;10.662;2022-08-19T10:13:16;44.65;;;19.25;;
8532;SDS011;4304;53.876;10.662;2022-08-19T10:15:47;49.33;;;18.17;;
8532;SDS011;4304;53.876;10.662;2022-08-19T10:18:15;37.70;;;19.35;;
8532;SDS011;4304;53.876;10.662;2022-08-19T10:20:48;39.05;;;18.73;;
8532;SDS011;4304;53.876;10.662;2022-08-19T10:23:15;52.95;;;18.95;;
8532;SDS011;4304;53.876;10.662;2022-08-19T10:25:41;47.38;;;19.55;;
8532;SDS011;4304;53.876;10.662;2022-08-19T10:28:07;40.55;;;18.48;;
8532;SDS011;4304;53.876;10.662;2022-08-19T10:30:35;42.20;;;17.92;;
8532;SDS011;4304;53.876;10.662;2022-08-19T10:33:00;34.78;;;17.73;;
8532;SDS011;4304;53.876;10.662;2022-08-19T10:35:26;41.88;;;17.85;;
8532;SDS011;4304;53.876;10.662;2022-08-19T10:37:54;42.85;;;17.67;;
8532;SDS011;4304;53.876;10.662;2022-08-19T10:40:24;45.35;;;17.45;;
8532;SDS011;4304;53.876;10.662;2022-08-19T10:42:51;35.17;;;16.48;;
8532;SDS011;4304;53.876;10.662;2022-08-19T10:45:17;31.15;;;15.55;;
8532;SDS011;4304;53.876;10.662;2022-08-19T10:47:43;30.70;;;15.82;;
8532;SDS011;4304;53.876;10.662;2022-08-19T10:50:08;30.58;;;15.15;;
8532;SDS011;4304;53.876;10.662;2022-08-19T10:52:52;31.65;;;15.73;;
8532;SDS011;4304;53.876;10.662;2022-08-19T10:55:19;39.22;;;16.45;;
8532;SDS011;4304;53.876;10.662;2022-08-19T10:58:09;32.28;;;15.95;;
8532;SDS011;4304;53.876;10.662;2022-08-19T11:00:39;28.92;;;16.52;;
8532;SDS011;4304;53.876;10.662;2022-08-19T11:03:05;31.90;;;15.15;;
8532;SDS011;4304;53.876;10.662;2022-08-19T11:05:31;32.92;;;15.27;;
8532;SDS011;4304;53.876;10.662;2022-08-19T11:07:56;34.05;;;16.23;;
8532;SDS011;4304;53.876;10.662;2022-08-19T11:10:21;34.55;;;15.20;;
8532;SDS011;4304;53.876;10.662;2022-08-19T11:12:48;36.47;;;15.30;;
8532;SDS011;4304;53.876;10.662;2022-08-19T11:15:19;36.30;;;15.68;;
8532;SDS011;4304;53.876;10.662;2022-08-19T11:17:44;32.72;;;15.02;;
8532;SDS011;4304;53.876;10.662;2022-08-19T11:20:10;36.55;;;16.15;;
8532;SDS011;4304;53.876;10.662;2022-08-19T11:22:37;32.10;;;15.60;;
8532;SDS011;4304;53.876;10.662;2022-08-19T11:25:05;31.65;;;14.88;;
8532;SDS011;4304;53.876;10.662;2022-08-19T11:27:30;38.88;;;16.30;;
8532;SDS011;4304;53.876;10.662;2022-08-19T11:29:56;27.42;;;15.82;;
8532;SDS011;4304;53.876;10.662;2022-08-19T11:32:21;40.63;;;16.33;;
8532;SDS011;4304;53.876;10.662;2022-08-19T11:34:46;30.77;;;14.50;;
8532;SDS011;4304;53.876;10.662;2022-08-19T11:37:12;28.58;;;16.25;;
8532;SDS011;4304;53.876;10.662;2022-08-19T11:39:37;31.60;;;16.30;;
8532;SDS011;4304;53.876;10.662;2022-08-19T11:42:04;28.48;;;15.75;;
8532;SDS011;4304;53.876;10.662;2022-08-19T11:44:50;30.80;;;14.25;;
8532;SDS011;4304;53.876;10.662;2022-08-19T11:47:16;23.75;;;13.90;;
8532;SDS011;4304;53.876;10.662;2022-08-19T11:49:42;27.23;;;14.93;;
8532;SDS011;4304;53.876;10.662;2022-08-19T11:52:07;30.80;;;14.75;;
8532;SDS011;4304;53.876;10.662;2022-08-19T11:54:34;29.25;;;14.27;;
8532;SDS011;4304;53.876;10.662;2022-08-19T11:57:00;26.27;;;14.80;;
8532;SDS011;4304;53.876;10.662;2022-08-19T11:59:27;24.65;;;15.00;;
8532;SDS011;4304;53.876;10.662;2022-08-19T12:01:52;26.40;;;14.50;;
8532;SDS011;4304;53.876;10.662;2022-08-19T12:04:18;30.33;;;15.18;;
8532;SDS011;4304;53.876;10.662;2022-08-19T12:06:43;33.80;;;17.38;;
8532;SDS011;4304;53.876;10.662;2022-08-19T12:09:09;30.67;;;15.55;;
8532;SDS011;4304;53.876;10.662;2022-08-19T12:11:35;28.70;;;15.77;;
8532;SDS011;4304;53.876;10.662;2022-08-19T12:14:03;33.22;;;16.67;;
8532;SDS011;4304;53.876;10.662;2022-08-19T12:16:29;32.47;;;16.45;;
8532;SDS011;4304;53.876;10.662;2022-08-19T12:18:56;34.67;;;16.17;;
8532;SDS011;4304;53.876;10.662;2022-08-19T12:21:25;34.03;;;16.73;;
8532;SDS011;4304;53.876;10.662;2022-08-19T12:23:53;29.35;;;15.70;;
8532;SDS011;4304;53.876;10.662;2022-08-19T12:26:20;34.42;;;16.13;;
8532;SDS011;4304;53.876;10.662;2022-08-19T12:28:45;31.52;;;14.70;;
8532;SDS011;4304;53.876;10.662;2022-08-19T12:31:12;29.17;;;15.27;;
8532;SDS011;4304;53.876;10.662;2022-08-19T12:33:37;30.55;;;15.57;;
8532;SDS011;4304;53.876;10.662;2022-08-19T12:36:04;29.27;;;15.20;;
8532;SDS011;4304;53.876;10.662;2022-08-19T12:38:32;26.10;;;14.88;;
8532;SDS011;4304;53.876;10.662;2022-08-19T12:40:59;28.48;;;13.80;;
8532;SDS011;4304;53.876;10.662;2022-08-19T12:43:24;24.10;;;13.15;;
8532;SDS011;4304;53.876;10.662;2022-08-19T12:45:49;27.60;;;14.52;;
8532;SDS011;4304;53.876;10.662;2022-08-19T12:48:15;23.33;;;13.13;;
8532;SDS011;4304;53.876;10.662;2022-08-19T12:50:41;23.70;;;13.50;;
8532;SDS011;4304;53.876;10.662;2022-08-19T12:53:09;25.95;;;13.05;;
8532;SDS011;4304;53.876;10.662;2022-08-19T12:55:35;26.50;;;14.38;;
8532;SDS011;4304;53.876;10.662;2022-08-19T12:58:00;22.17;;;14.02;;
8532;SDS011;4304;53.876;10.662;2022-08-19T13:00:28;22.92;;;13.55;;
8532;SDS011;4304;53.876;10.662;2022-08-19T13:02:55;23.63;;;14.70;;
8532;SDS011;4304;53.876;10.662;2022-08-19T13:05:24;25.65;;;15.18;;
8532;SDS011;4304;53.876;10.662;2022-08-19T13:07:52;25.77;;;13.38;;
8532;SDS011;4304;53.876;10.662;2022-08-19T13:10:21;27.45;;;15.10;;
8532;SDS011;4304;53.876;10.662;2022-08-19T13:12:48;26.55;;;15.25;;
8532;SDS011;4304;53.876;10.662;2022-08-19T13:15:15;22.65;;;14.63;;
8532;SDS011;4304;53.876;10.662;2022-08-19T13:17:45;24.77;;;13.85;;
8532;SDS011;4304;53.876;10.662;2022-08-19T13:20:13;28.25;;;15.48;;
8532;SDS011;4304;53.876;10.662;2022-08-19T13:22:38;25.35;;;14.77;;
8532;SDS011;4304;53.876;10.662;2022-08-19T13:25:04;25.90;;;15.02;;
8532;SDS011;4304;53.876;10.662;2022-08-19T13:27:31;27.45;;;15.73;;
8532;SDS011;4304;53.876;10.662;2022-08-19T13:29:57;28.05;;;15.05;;
8532;SDS011;4304;53.876;10.662;2022-08-19T13:32:41;26.20;;;15.02;;
8532;SDS011;4304;53.876;10.662;2022-08-19T13:35:25;24.42;;;14.70;;
8532;SDS011;4304;53.876;10.662;2022-08-19T13:37:50;25.80;;;14.52;;
8532;SDS011;4304;53.876;10.662;2022-08-19T13:40:16;25.58;;;14.18;;
8532;SDS011;4304;53.876;10.662;2022-08-19T13:42:47;25.08;;;14.80;;
8532;SDS011;4304;53.876;10.662;2022-08-19T13:45:15;28.73;;;14.75;;
8532;SDS011;4304;53.876;10.662;2022-08-19T13:47:45;24.48;;;14.52;;
8532;SDS011;4304;53.876;10.662;2022-08-19T13:50:12;23.90;;;14.68;;
8532;SDS011;4304;53.876;10.662;2022-08-19T13:52:39;22.95;;;13.65;;
8532;SDS011;4304;53.876;10.662;2022-08-19T13:55:06;24.75;;;14.70;;
8532;SDS011;4304;53.876;10.662;2022-08-19T13:57:32;25.33;;;14.45;;
8532;SDS011;4304;53.876;10.662;2022-08-19T13:59:58;20.20;;;13.07;;
8532;SDS011;4304;53.876;10.662;2022-08-19T14:02:23;24.85;;;13.38;;
8532;SDS011;4304;53.876;10.662;2022-08-19T14:04:49;22.05;;;13.48;;
8532;SDS011;4304;53.876;10.662;2022-08-19T14:07:15;27.75;;;14.13;;
8532;SDS011;4304;53.876;10.662;2022-08-19T14:09:40;22.60;;;13.27;;
8532;SDS011;4304;53.876;10.662;2022-08-19T14:12:06;26.98;;;14.75;;
8532;SDS011;4304;53.876;10.662;2022-08-19T14:14:31;25.30;;;14.43;;
8532;SDS011;4304;53.876;10.662;2022-08-19T14:16:57;22.35;;;13.30;;
8532;SDS011;4304;53.876;10.662;2022-08-19T14:19:22;22.08;;;13.25;;
8532;SDS011;4304;53.876;10.662;2022-08-19T14:21:48;22.75;;;12.50;;
8532;SDS011;4304;53.876;10.662;2022-08-19T14:24:13;20.25;;;12.80;;
8532;SDS011;4304;53.876;10.662;2022-08-19T14:26:38;18.80;;;12.38;;
8532;SDS011;4304;53.876;10.662;2022-08-19T14:29:04;23.63;;;14.15;;
8532;SDS011;4304;53.876;10.662;2022-08-19T14:31:29;23.25;;;12.85;;
8532;SDS011;4304;53.876;10.662;2022-08-19T14:33:54;23.25;;;13.38;;
8532;SDS011;4304;53.876;10.662;2022-08-19T14:36:20;22.40;;;13.05;;
8532;SDS011;4304;53.876;10.662;2022-08-19T14:38:46;19.88;;;13.23;;
8532;SDS011;4304;53.876;10.662;2022-08-19T14:41:17;25.60;;;13.43;;
8532;SDS011;4304;53.876;10.662;2022-08-19T14:43:45;23.23;;;12.38;;
8532;SDS011;4304;53.876;10.662;2022-08-19T14:46:13;21.05;;;12.95;;
8532;SDS011;4304;53.876;10.662;2022-08-19T14:48:40;18.73;;;12.23;;